LFSD Airport Information

Runway Information
Runway 02 Length 5905 ft width 118 ft
Elevation 719 ft Threshold ft Heading 15
Runway 20 Length 5905 ft Width 118 ft
Elevation 728 ft Threshold ft Heading 195
Runway 18 Length 7874 ft width 148 ft
Elevation 726 ft Threshold ft Heading 175
Runway 36 Length 7874 ft Width 148 ft
Elevation 710 ft Threshold ft Heading 355
Airport Frequencies
Type A/D Name DIJON APP Frequency 142.45 MHZ
Type AFIS Name DIJON INFO Frequency 118.325 MHZ
Type GND Name DIJON GND Frequency 122.1 MHZ
Type TWR Name DIJON TWR Frequency 118.325 MHZ
Airport Navaids
Type TACAN Name Dijon Frequency 113500 KHZ
Type VOR-DME Name Dijon Frequency 111450 KHZ
Airport Weather Information & NOTAM
ADDS - METARS form results

(1005 UTC 05 February 2023)
Data provider http://aviationweather.gov/metar/data/
 
METAR text: LFSD 051000Z AUTO 35009KT 330V030 9999 FEW045 OVC060 08/04 Q1038
Conditions at: LFSD (DIJON/LONGVIC(FA, FR) observed 1000 UTC 05 February 2023
Temperature: 8.0°C (46°F)
Dewpoint: 4.0°C (39°F) [RH = 76%]
Pressure (altimeter): 30.65 inches Hg (1038.0 mb)
Winds: from the N (350 degrees) at 10 MPH (9 knots; 4.6 m/s)
Visibility: 6 or more miles (10+ km)
Ceiling: 6000 feet AGL
Clouds: few clouds at 4500 feet AGL
overcast cloud deck at 6000 feet AGL
Weather: no significant weather observed at this time

METAR text: LFSD 050930Z AUTO 34010KT 9999 BKN033 BKN041 OVC047 07/04 Q1038
Conditions at: LFSD (DIJON/LONGVIC(FA, FR) observed 0930 UTC 05 February 2023
Temperature: 7.0°C (45°F)
Dewpoint: 4.0°C (39°F) [RH = 81%]
Pressure (altimeter): 30.65 inches Hg (1038.0 mb)
Winds: from the NNW (340 degrees) at 12 MPH (10 knots; 5.1 m/s)
Visibility: 6 or more miles (10+ km)
Ceiling: 3300 feet AGL
Clouds: broken clouds at 3300 feet AGL
broken clouds at 4100 feet AGL
overcast cloud deck at 4700 feet AGL
Weather: no significant weather observed at this time